Time;durP1;ratioP1;P1;durP2;ratioP2;P2;SDS_P1;SDS_P2;PMS_P1;PMS_P2;Temp;Humidity;BMP_temperature;BMP_pressure;BME280_temperature;BME280_humidity;BME280_pressure;Samples;Min_cycle;Max_cycle;Signal;HPM_P1;HPM_P2
2022/03/29 00:01:14;;;;;;;62.33;38.27;;;11.30;99.90;;;;;;5023416;28;20218;-78
2022/03/29 00:03:41;;;;;;;62.10;37.17;;;11.50;99.90;;;;;;5017954;28;20678;-78
2022/03/29 00:06:08;;;;;;;66.73;37.77;;;11.50;99.90;;;;;;5018103;28;20228;-78
2022/03/29 00:08:37;;;;;;;64.47;36.90;;;11.50;99.90;;;;;;5020281;28;20208;-78
2022/03/29 00:11:06;;;;;;;55.27;35.50;;;11.60;99.90;;;;;;5017763;28;20211;-78
2022/03/29 00:13:35;;;;;;;62.97;37.67;;;11.60;99.90;;;;;;4999716;28;20230;-78
2022/03/29 00:18:44;;;;;;;57.27;35.73;;;11.20;99.90;;;;;;5025147;28;20211;-79
2022/03/29 00:21:13;;;;;;;60.53;37.27;;;11.30;99.90;;;;;;5028340;28;20212;-80
2022/03/29 00:23:41;;;;;;;57.40;35.27;;;11.00;99.90;;;;;;5025542;28;20218;-80
2022/03/29 00:26:09;;;;;;;58.63;36.70;;;11.00;99.90;;;;;;5023296;28;20235;-80
2022/03/29 00:28:37;;;;;;;56.83;36.77;;;11.00;99.90;;;;;;5021968;28;20556;-80
2022/03/29 00:31:04;;;;;;;52.57;35.37;;;10.90;99.90;;;;;;5017827;28;20211;-79
2022/03/29 00:33:31;;;;;;;60.87;36.70;;;10.90;99.90;;;;;;5023972;28;20196;-79
2022/03/29 00:36:06;;;;;;;60.10;37.03;;;10.90;99.90;;;;;;5021073;28;20204;-80
2022/03/29 00:38:33;;;;;;;60.07;36.43;;;11.20;99.90;;;;;;5018782;28;20227;-77
2022/03/29 00:41:04;;;;;;;58.30;36.90;;;11.20;99.90;;;;;;5019162;28;20228;-78
2022/03/29 00:43:34;;;;;;;62.27;37.80;;;11.00;99.90;;;;;;5020877;28;20231;-77
2022/03/29 00:46:04;;;;;;;59.43;36.37;;;10.90;99.90;;;;;;5028006;28;20192;-78
2022/03/29 00:48:34;;;;;;;63.00;38.07;;;10.80;99.90;;;;;;5026124;28;20207;-78
2022/03/29 00:51:08;;;;;;;61.33;37.93;;;10.80;99.90;;;;;;5030110;28;20211;-78
2022/03/29 00:53:36;;;;;;;58.13;37.47;;;10.50;99.90;;;;;;5023974;28;20223;-77
2022/03/29 00:56:11;;;;;;;58.13;36.53;;;10.60;99.90;;;;;;5024889;28;20247;-78
2022/03/29 00:58:45;;;;;;;60.67;36.50;;;10.70;99.90;;;;;;5029858;28;20214;-78
2022/03/29 01:01:20;;;;;;;57.83;37.10;;;10.70;99.90;;;;;;5026558;28;20176;-78
2022/03/29 01:03:55;;;;;;;63.53;37.67;;;10.50;99.90;;;;;;5031135;28;20183;-78
2022/03/29 01:06:28;;;;;;;56.53;36.27;;;10.70;99.90;;;;;;5026644;28;20191;-77
2022/03/29 01:09:02;;;;;;;55.77;37.07;;;10.80;99.90;;;;;;5030815;28;20208;-80
2022/03/29 01:11:32;;;;;;;56.63;35.13;;;10.80;99.90;;;;;;5027501;28;20213;-78
2022/03/29 01:14:02;;;;;;;56.37;35.60;;;10.80;99.90;;;;;;5029036;28;20186;-79
2022/03/29 01:19:23;;;;;;;59.33;35.70;;;10.80;99.90;;;;;;5028024;28;20190;-78
2022/03/29 01:21:58;;;;;;;56.60;34.87;;;10.50;99.90;;;;;;5028584;28;20180;-77
2022/03/29 01:24:26;;;;;;;56.77;35.93;;;10.50;99.90;;;;;;5029625;28;20184;-77
2022/03/29 01:27:00;;;;;;;55.97;35.97;;;10.50;99.90;;;;;;5028464;28;20211;-82
2022/03/29 01:29:29;;;;;;;56.63;35.83;;;10.50;99.90;;;;;;5025336;28;20701;-79
2022/03/29 01:32:08;;;;;;;59.30;34.87;;;10.50;99.90;;;;;;5025416;28;20195;-79
2022/03/29 01:34:40;;;;;;;59.07;35.67;;;10.50;99.90;;;;;;5024390;28;20215;-78
2022/03/29 01:37:09;;;;;;;63.33;36.10;;;10.40;99.90;;;;;;5023728;28;20611;-79
2022/03/29 01:39:41;;;;;;;55.70;35.93;;;10.30;99.90;;;;;;5027611;28;20204;-78
2022/03/29 01:42:10;;;;;;;57.07;34.30;;;10.20;99.90;;;;;;5033402;28;20176;-79
2022/03/29 01:44:40;;;;;;;57.40;35.40;;;10.40;99.90;;;;;;5033928;28;20200;-79
2022/03/29 01:47:09;;;;;;;52.27;33.63;;;10.50;99.90;;;;;;5035184;28;20234;-77
2022/03/29 01:49:38;;;;;;;59.00;35.93;;;10.50;99.90;;;;;;5030559;28;20208;-79
2022/03/29 01:52:20;;;;;;;49.13;33.90;;;10.60;99.90;;;;;;5032359;28;20218;-80
2022/03/29 01:54:48;;;;;;;58.83;36.30;;;10.60;99.90;;;;;;5030459;28;20215;-78
2022/03/29 01:57:19;;;;;;;52.00;33.80;;;10.50;99.90;;;;;;5030448;28;20239;-78
2022/03/29 02:02:40;;;;;;;56.63;35.00;;;10.40;99.90;;;;;;5034357;28;20191;-78
2022/03/29 02:05:11;;;;;;;57.88;42.28;;;10.50;99.90;;;;;;5030911;28;20433;-79
2022/03/29 02:07:50;;;;;;;52.20;35.43;;;10.40;99.90;;;;;;5030454;28;20224;-79
2022/03/29 02:10:17;;;;;;;51.70;33.30;;;10.60;99.90;;;;;;5028494;28;20203;-78
2022/03/29 02:12:47;;;;;;;53.70;33.57;;;10.50;99.90;;;;;;5031297;28;20204;-77
2022/03/29 02:15:14;;;;;;;60.33;33.90;;;10.60;99.90;;;;;;5032960;28;20572;-79
2022/03/29 02:17:46;;;;;;;55.60;33.40;;;10.50;99.90;;;;;;5031845;28;20199;-78
2022/03/29 02:20:14;;;;;;;52.47;33.90;;;10.60;99.90;;;;;;5033535;28;20199;-78
2022/03/29 02:22:45;;;;;;;51.97;33.73;;;10.70;99.90;;;;;;5027362;28;20212;-78
2022/03/29 02:25:16;;;;;;;53.27;34.13;;;10.80;99.90;;;;;;5030358;28;20202;-78
2022/03/29 02:27:46;;;;;;;53.67;33.63;;;10.80;99.90;;;;;;5032382;28;20633;-79
2022/03/29 02:30:15;;;;;;;52.63;34.00;;;10.70;99.90;;;;;;5029914;28;20639;-78
2022/03/29 02:33:02;;;;;;;56.87;33.90;;;10.90;99.90;;;;;;5031254;28;20196;-78
2022/03/29 02:35:31;;;;;;;55.27;34.47;;;10.90;99.90;;;;;;5031625;28;20208;-79
2022/03/29 02:38:02;;;;;;;52.90;34.20;;;11.00;99.90;;;;;;5029234;28;20223;-78
2022/03/29 02:40:35;;;;;;;56.40;34.57;;;11.00;99.90;;;;;;5033064;28;20266;-78
2022/03/29 02:43:03;;;;;;;49.90;32.93;;;10.90;99.90;;;;;;5031360;28;20181;-78
2022/03/29 02:45:34;;;;;;;53.43;33.03;;;10.50;99.90;;;;;;5031175;28;20214;-78
2022/03/29 02:48:00;;;;;;;51.20;33.13;;;10.40;99.90;;;;;;5031924;28;20226;-78
2022/03/29 02:50:28;;;;;;;54.13;34.60;;;10.50;99.90;;;;;;5031869;28;20203;-78
2022/03/29 02:52:56;;;;;;;56.37;33.10;;;10.50;99.90;;;;;;5026750;28;20215;-80
2022/03/29 02:55:25;;;;;;;53.93;32.43;;;10.70;99.90;;;;;;5031202;28;20200;-79
2022/03/29 02:57:56;;;;;;;55.70;32.90;;;10.80;99.90;;;;;;5030699;28;20238;-79
2022/03/29 03:00:26;;;;;;;53.40;31.87;;;10.60;99.90;;;;;;5029661;28;20192;-77
2022/03/29 03:02:55;;;;;;;54.17;32.40;;;10.60;99.90;;;;;;5030684;28;20215;-77
2022/03/29 03:05:30;;;;;;;51.53;31.23;;;10.40;99.90;;;;;;5029824;28;20200;-79
2022/03/29 03:08:02;;;;;;;55.00;32.57;;;10.50;99.90;;;;;;5033617;28;20229;-78
2022/03/29 03:10:37;;;;;;;46.03;31.13;;;10.60;99.90;;;;;;5014979;28;20204;-78
2022/03/29 03:13:12;;;;;;;47.73;31.97;;;10.60;99.90;;;;;;5031022;28;20229;-78
2022/03/29 03:15:45;;;;;;;55.10;31.87;;;10.70;99.90;;;;;;5031889;28;20199;-79
2022/03/29 03:18:16;;;;;;;57.93;39.97;;;10.60;99.90;;;;;;5031006;28;20425;-82
2022/03/29 03:20:46;;;;;;;57.90;33.80;;;10.90;99.90;;;;;;5033101;28;20196;-78
2022/03/29 03:23:18;;;;;;;53.07;31.93;;;11.00;99.90;;;;;;5027925;28;20203;-78
2022/03/29 03:25:56;;;;;;;52.53;32.63;;;11.00;99.90;;;;;;5030252;28;20259;-79
2022/03/29 03:28:32;;;;;;;64.73;40.47;;;11.20;99.90;;;;;;5030257;28;20266;-82
2022/03/29 03:31:03;;;;;;;52.07;32.33;;;11.20;99.90;;;;;;5028731;28;20207;-79
2022/03/29 03:33:35;;;;;;;48.57;30.07;;;11.10;99.90;;;;;;5030430;28;20196;-80
2022/03/29 03:38:44;;;;;;;49.20;30.67;;;11.00;99.90;;;;;;5030296;28;20207;-79
2022/03/29 03:41:18;;;;;;;48.20;32.30;;;11.10;99.90;;;;;;5031619;28;20291;-79
2022/03/29 03:43:54;;;;;;;51.70;30.00;;;11.00;99.90;;;;;;5030749;28;20208;-80
2022/03/29 03:46:30;;;;;;;50.50;30.00;;;10.80;99.90;;;;;;5030287;28;20230;-78
2022/03/29 03:48:57;;;;;;;52.27;31.77;;;10.70;99.90;;;;;;5031320;28;20214;-79
2022/03/29 03:51:32;;;;;;;52.27;31.60;;;10.90;99.90;;;;;;5033098;28;20278;-82
2022/03/29 03:53:59;;;;;;;53.17;30.93;;;11.00;99.90;;;;;;5031649;28;20234;-79
2022/03/29 03:56:26;;;;;;;54.20;31.97;;;10.80;99.90;;;;;;5031702;28;20218;-81
2022/03/29 03:58:56;;;;;;;46.80;27.93;;;10.80;99.90;;;;;;5032950;28;20207;-79
2022/03/29 04:01:27;;;;;;;51.83;30.27;;;10.60;99.90;;;;;;5030496;28;20199;-83
2022/03/29 04:03:54;;;;;;;44.00;29.80;;;10.80;99.90;;;;;;5029007;28;20196;-78
2022/03/29 04:06:21;;;;;;;54.33;30.20;;;10.70;99.90;;;;;;5021601;28;20196;-79
2022/03/29 04:08:49;;;;;;;45.87;29.73;;;10.40;99.90;;;;;;5019087;28;20318;-79
2022/03/29 04:11:21;;;;;;;47.30;29.30;;;10.30;99.90;;;;;;5019889;28;20208;-79
2022/03/29 04:13:49;;;;;;;52.43;30.00;;;10.50;99.90;;;;;;5020493;28;20207;-79
2022/03/29 04:16:17;;;;;;;48.70;29.87;;;10.70;99.90;;;;;;5020145;28;20204;-79
2022/03/29 04:18:46;;;;;;;44.87;28.97;;;10.60;99.90;;;;;;5021605;28;20219;-79
2022/03/29 04:21:16;;;;;;;49.47;29.77;;;10.50;99.90;;;;;;5021561;28;20212;-79
2022/03/29 04:23:43;;;;;;;54.27;29.50;;;10.40;99.90;;;;;;5022287;28;20202;-79
2022/03/29 04:26:12;;;;;;;45.13;28.93;;;10.30;99.90;;;;;;5022836;28;20207;-80
2022/03/29 04:28:39;;;;;;;49.90;30.20;;;10.20;99.90;;;;;;5028620;28;20453;-81
2022/03/29 04:31:09;;;;;;;47.23;27.97;;;10.30;99.90;;;;;;5029323;28;20195;-79
2022/03/29 04:33:40;;;;;;;54.40;29.57;;;10.10;99.90;;;;;;5027682;28;20251;-80
2022/03/29 04:36:14;;;;;;;46.57;27.93;;;10.10;99.90;;;;;;5029518;28;20188;-80
2022/03/29 04:38:41;;;;;;;48.37;27.67;;;10.40;99.90;;;;;;5029188;28;20218;-81
2022/03/29 04:41:13;;;;;;;45.43;27.17;;;10.50;99.90;;;;;;5025360;28;20227;-79
2022/03/29 04:43:42;;;;;;;48.10;28.10;;;10.60;99.90;;;;;;5019655;28;20204;-78
2022/03/29 04:46:09;;;;;;;52.33;27.97;;;10.70;99.90;;;;;;5018829;28;20212;-80
2022/03/29 04:48:44;;;;;;;48.40;26.63;;;10.60;99.90;;;;;;5018538;28;20761;-79
2022/03/29 04:51:11;;;;;;;45.00;27.20;;;10.70;99.90;;;;;;5017704;28;20211;-79
2022/03/29 04:53:39;;;;;;;42.30;25.17;;;10.70;99.90;;;;;;5018370;28;20219;-78
2022/03/29 04:56:15;;;;;;;50.90;26.93;;;10.70;99.90;;;;;;5019546;28;20212;-79
2022/03/29 04:58:49;;;;;;;48.23;25.90;;;10.70;99.90;;;;;;5019137;28;20208;-79
2022/03/29 05:01:16;;;;;;;53.67;27.67;;;10.70;99.90;;;;;;5012069;28;20258;-78
2022/03/29 05:03:47;;;;;;;46.73;25.60;;;10.50;99.90;;;;;;5016978;28;20298;-77
2022/03/29 05:06:15;;;;;;;42.87;24.50;;;10.50;99.90;;;;;;5018367;28;20212;-77
2022/03/29 05:08:42;;;;;;;46.23;24.37;;;10.50;99.90;;;;;;5024646;28;20266;-78
2022/03/29 05:11:10;;;;;;;49.43;25.20;;;10.50;99.90;;;;;;5021679;28;20738;-78
2022/03/29 05:13:38;;;;;;;41.13;22.53;;;10.50;99.90;;;;;;5020128;28;20208;-80
2022/03/29 05:16:14;;;;;;;41.63;24.47;;;10.30;99.90;;;;;;5019549;28;20636;-80
2022/03/29 05:18:49;;;;;;;47.10;30.08;;;10.50;99.90;;;;;;5019263;28;20420;-80
2022/03/29 05:21:19;;;;;;;46.27;25.70;;;10.80;99.90;;;;;;5020923;28;20192;-79
2022/03/29 05:23:49;;;;;;;42.47;23.33;;;10.80;99.90;;;;;;5022403;28;20209;-80
2022/03/29 05:26:17;;;;;;;40.77;23.10;;;10.80;99.90;;;;;;5021970;28;20226;-80
2022/03/29 05:28:44;;;;;;;43.07;22.80;;;10.40;99.90;;;;;;5021760;28;20223;-78
2022/03/29 05:31:11;;;;;;;42.83;22.10;;;10.30;99.90;;;;;;5019586;28;20215;-79
2022/03/29 05:33:41;;;;;;;45.17;21.87;;;10.10;99.90;;;;;;5024291;28;20195;-78
2022/03/29 05:36:12;;;;;;;42.60;22.03;;;10.30;99.90;;;;;;5021094;28;20212;-79
2022/03/29 05:38:49;;;;;;;43.47;22.20;;;10.30;99.90;;;;;;5020733;28;20249;-80
2022/03/29 05:41:19;;;;;;;41.67;22.10;;;10.40;99.90;;;;;;5020363;28;20699;-79
2022/03/29 05:43:47;;;;;;;48.83;23.57;;;10.40;99.90;;;;;;5021268;28;21155;-80
2022/03/29 05:49:02;;;;;;;41.77;21.73;;;10.70;99.90;;;;;;5022788;28;20234;-79
2022/03/29 05:51:33;;;;;;;41.13;22.07;;;10.50;99.90;;;;;;5023799;28;20286;-79
2022/03/29 05:54:04;;;;;;;40.97;22.43;;;10.50;99.90;;;;;;5005842;28;20668;-80
2022/03/29 05:56:31;;;;;;;42.37;22.13;;;10.40;99.90;;;;;;5005901;28;20207;-80
2022/03/29 06:14:23;;;;;;;43.10;20.73;;;10.10;99.90;;;;;;5007636;28;20243;-82
2022/03/29 06:23:04;;;;;;;41.07;20.83;;;10.30;99.90;;;;;;5003690;28;20204;-81
2022/03/29 06:28:27;;;;;;;42.90;20.73;;;10.30;99.90;;;;;;5017820;28;20225;-83
2022/03/29 06:37:26;;;;;;;34.87;18.00;;;10.40;99.90;;;;;;4683050;26;20230;-81
2022/03/29 06:40:33;;;;;;;39.30;18.40;;;10.60;99.90;;;;;;5005736;28;20223;-81
2022/03/29 07:17:04;;;;;;;33.93;18.70;;;11.60;99.90;;;;;;5449815;22;20229;-81
2022/03/29 07:40:16;;;;;;;31.03;18.70;;;12.50;99.90;;;;;;5136453;27;20597;-85
2022/03/29 07:42:46;;;;;;;36.60;18.63;;;12.30;99.90;;;;;;5135669;28;20193;-87
2022/03/29 07:45:16;;;;;;;37.83;19.97;;;12.30;99.90;;;;;;5115882;28;20270;-82
2022/03/29 07:47:44;;;;;;;37.27;20.20;;;12.00;99.90;;;;;;5132384;28;20222;-85
2022/03/29 07:50:12;;;;;;;37.67;21.27;;;12.40;99.90;;;;;;5132379;28;20217;-84
2022/03/29 07:52:42;;;;;;;33.83;19.80;;;12.60;99.90;;;;;;5133552;27;20204;-86
2022/03/29 07:55:13;;;;;;;35.47;20.67;;;12.40;99.90;;;;;;5132430;27;20206;-81
2022/03/29 07:57:41;;;;;;;34.33;20.53;;;12.30;99.90;;;;;;5131802;27;20211;-86
2022/03/29 08:02:58;;;;;;;39.43;22.03;;;12.90;99.90;;;;;;5132954;28;20555;-84
2022/03/29 08:05:27;;;;;;;43.60;22.57;;;13.10;99.90;;;;;;5131644;27;20711;-86
2022/03/29 08:07:54;;;;;;;44.17;22.53;;;13.20;99.90;;;;;;5131679;28;20274;-83
2022/03/29 08:10:25;;;;;;;39.87;22.77;;;13.30;99.90;;;;;;5131356;28;20237;-81
2022/03/29 08:12:56;;;;;;;40.47;21.80;;;13.20;99.90;;;;;;5131749;28;20218;-82
2022/03/29 08:15:24;;;;;;;39.70;21.07;;;13.50;99.90;;;;;;5131206;28;20256;-81
2022/03/29 08:17:53;;;;;;;41.83;21.90;;;13.40;99.90;;;;;;5131805;28;20188;-81
2022/03/29 08:20:21;;;;;;;34.20;20.67;;;12.90;99.90;;;;;;5131753;28;20234;-84
2022/03/29 08:22:49;;;;;;;37.00;21.43;;;12.80;99.90;;;;;;5131923;28;20249;-82
2022/03/29 08:25:18;;;;;;;36.67;21.47;;;12.90;99.90;;;;;;5132297;28;20202;-80
2022/03/29 08:27:47;;;;;;;40.90;23.00;;;12.70;99.90;;;;;;5131256;28;20196;-84
2022/03/29 08:30:16;;;;;;;97.83;32.27;;;12.90;99.90;;;;;;5131833;28;20210;-78
2022/03/29 08:32:45;;;;;;;47.83;23.83;;;13.30;99.90;;;;;;5131806;28;20225;-81
2022/03/29 08:35:12;;;;;;;40.13;22.00;;;13.10;99.90;;;;;;5131510;27;20200;-80
2022/03/29 08:37:46;;;;;;;45.57;22.90;;;13.20;99.90;;;;;;5130878;28;20210;-83
2022/03/29 08:40:15;;;;;;;36.93;20.73;;;13.20;99.90;;;;;;5130090;28;20775;-85
2022/03/29 08:42:47;;;;;;;39.27;21.20;;;12.90;99.90;;;;;;5130697;28;20318;-81
2022/03/29 08:45:16;;;;;;;37.57;21.33;;;12.90;99.90;;;;;;5131072;28;20187;-78
2022/03/29 08:47:47;;;;;;;35.63;20.83;;;13.00;99.90;;;;;;5129545;27;20650;-89
2022/03/29 08:50:15;;;;;;;39.83;22.53;;;13.00;99.90;;;;;;5124948;28;20231;-79
2022/03/29 08:52:44;;;;;;;36.97;21.63;;;12.90;99.90;;;;;;5117111;28;20191;-80
2022/03/29 08:55:12;;;;;;;40.30;21.37;;;12.90;99.90;;;;;;5117221;28;20293;-89
2022/03/29 08:57:39;;;;;;;52.20;23.80;;;12.80;99.90;;;;;;5117413;28;20210;-78
2022/03/29 09:00:09;;;;;;;41.70;23.43;;;13.00;99.90;;;;;;5116880;28;20231;-78
2022/03/29 09:02:39;;;;;;;45.17;23.40;;;13.10;99.90;;;;;;5117531;28;20203;-82
2022/03/29 09:05:12;;;;;;;38.30;22.63;;;13.10;99.90;;;;;;5117057;28;20217;-79
2022/03/29 09:07:51;;;;;;;41.93;23.20;;;13.00;99.90;;;;;;5116100;28;20252;-78
2022/03/29 09:10:18;;;;;;;99.43;41.70;;;13.10;99.90;;;;;;5117191;28;20207;-78
2022/03/29 09:12:46;;;;;;;39.43;23.43;;;13.10;99.90;;;;;;5116619;28;20207;-79
2022/03/29 09:15:14;;;;;;;42.60;22.37;;;13.10;99.90;;;;;;5116928;28;20229;-79
2022/03/29 09:17:44;;;;;;;38.67;23.70;;;12.90;99.90;;;;;;5116370;28;20429;-82
2022/03/29 09:20:13;;;;;;;37.30;20.50;;;13.10;99.90;;;;;;5117276;28;20232;-86
2022/03/29 09:22:43;;;;;;;35.70;22.40;;;13.00;99.90;;;;;;5117590;28;20207;-83
2022/03/29 09:25:16;;;;;;;44.73;23.53;;;12.70;99.90;;;;;;5118763;28;20188;-83
2022/03/29 09:27:58;;;;;;;33.33;21.97;;;12.80;99.90;;;;;;5116701;28;20215;-82
2022/03/29 09:30:28;;;;;;;42.30;22.17;;;13.00;99.90;;;;;;5116000;28;20272;-86
2022/03/29 09:33:00;;;;;;;42.37;23.07;;;12.90;99.90;;;;;;5115600;28;20208;-84
2022/03/29 09:35:27;;;;;;;38.20;22.10;;;13.10;99.90;;;;;;5116941;28;20192;-84
2022/03/29 09:38:01;;;;;;;39.80;22.43;;;13.60;99.90;;;;;;5115585;28;20205;-82
2022/03/29 09:40:38;;;;;;;38.17;23.17;;;13.90;99.90;;;;;;5115556;28;20364;-82
2022/03/29 09:43:08;;;;;;;37.47;22.47;;;13.60;99.90;;;;;;5116143;28;20600;-85
2022/03/29 09:45:42;;;;;;;40.87;22.53;;;13.60;99.90;;;;;;5115013;28;20265;-85
2022/03/29 09:48:32;;;;;;;39.87;23.27;;;13.40;99.90;;;;;;5116046;28;20205;-86
2022/03/29 09:51:18;;;;;;;37.83;22.57;;;13.50;99.90;;;;;;5112076;28;20208;-85
2022/03/29 09:53:46;;;;;;;39.23;24.63;;;13.60;99.90;;;;;;5114567;28;20196;-82
2022/03/29 09:56:19;;;;;;;44.33;24.20;;;13.50;99.90;;;;;;5106080;28;20196;-85
2022/03/29 09:58:47;;;;;;;41.67;24.20;;;13.30;99.90;;;;;;5100454;28;20213;-87
2022/03/29 10:01:25;;;;;;;39.50;24.83;;;13.60;99.90;;;;;;5099142;28;20202;-90
2022/03/29 10:03:54;;;;;;;37.77;23.97;;;14.10;99.90;;;;;;5109303;28;20524;-83
2022/03/29 10:06:23;;;;;;;44.00;25.60;;;14.40;99.90;;;;;;5102458;28;20212;-82
2022/03/29 10:11:37;;;;;;;43.10;24.73;;;14.10;99.90;;;;;;5117039;28;20215;-81
2022/03/29 10:14:07;;;;;;;42.63;25.83;;;14.00;99.90;;;;;;5115800;28;20185;-84
2022/03/29 10:16:38;;;;;;;37.43;25.17;;;14.10;99.90;;;;;;5114406;28;20206;-89
2022/03/29 10:19:06;;;;;;;40.37;25.70;;;14.60;99.90;;;;;;5115004;28;20225;-83
2022/03/29 10:21:36;;;;;;;36.77;24.33;;;14.40;99.90;;;;;;5109078;28;20196;-85
2022/03/29 10:24:04;;;;;;;46.03;26.87;;;14.60;99.90;;;;;;5095148;28;20610;-81
2022/03/29 10:26:33;;;;;;;39.83;26.77;;;14.90;99.90;;;;;;5095763;28;20198;-84
2022/03/29 10:29:01;;;;;;;40.20;24.87;;;15.30;99.90;;;;;;5095610;28;20227;-88
2022/03/29 10:31:38;;;;;;;40.75;30.35;;;15.10;99.90;;;;;;5095084;28;20431;-90
2022/03/29 10:34:21;;;;;;;35.70;25.10;;;15.40;99.90;;;;;;5094424;28;20603;-84
2022/03/29 10:37:12;;;;;;;41.97;26.33;;;15.20;99.90;;;;;;5096017;28;20279;-80
2022/03/29 10:39:59;;;;;;;43.20;26.33;;;15.20;99.90;;;;;;5095716;28;20779;-80
2022/03/29 10:42:35;;;;;;;37.30;27.00;;;15.20;99.90;;;;;;5095957;28;20204;-90
2022/03/29 10:45:13;;;;;;;41.50;27.23;;;15.10;99.90;;;;;;5095531;28;20245;-82
2022/03/29 10:47:43;;;;;;;39.60;25.87;;;15.10;99.90;;;;;;5097031;28;20211;-83
2022/03/29 10:50:12;;;;;;;39.13;27.83;;;15.70;99.90;;;;;;5097174;28;20295;-80
2022/03/29 10:52:41;;;;;;;44.17;26.77;;;16.10;99.90;;;;;;5106636;28;20686;-80
2022/03/29 10:55:19;;;;;;;41.28;28.48;;;15.90;99.90;;;;;;5115860;28;20461;-81
2022/03/29 10:58:07;;;;;;;40.17;27.37;;;15.90;99.90;;;;;;5115106;28;20228;-81
2022/03/29 11:00:35;;;;;;;39.67;27.33;;;15.60;99.90;;;;;;5096807;28;20224;-83
2022/03/29 11:03:14;;;;;;;46.97;27.67;;;15.50;99.90;;;;;;5094957;28;20840;-82
2022/03/29 11:06:11;;;;;;;41.47;27.83;;;15.70;99.90;;;;;;5094908;28;20228;-79
2022/03/29 11:08:42;;;;;;;42.43;27.83;;;15.60;99.90;;;;;;5094629;28;20651;-82
2022/03/29 11:11:30;;;;;;;41.57;27.43;;;15.60;99.90;;;;;;5094701;28;20199;-79
2022/03/29 11:14:39;;;;;;;40.77;27.93;;;15.70;99.90;;;;;;5093552;28;20267;-80
2022/03/29 11:17:37;;;;;;;42.13;26.23;;;15.30;99.90;;;;;;5094051;28;20541;-81
2022/03/29 11:20:31;;;;;;;45.37;29.07;;;15.90;99.90;;;;;;5091140;28;20285;-79
2022/03/29 11:23:02;;;;;;;46.47;28.77;;;16.30;99.90;;;;;;5095391;28;20204;-78
2022/03/29 11:25:40;;;;;;;39.57;25.27;;;16.40;99.90;;;;;;5103032;28;20200;-77
2022/03/29 11:28:08;;;;;;;41.03;26.87;;;16.30;99.90;;;;;;5099357;28;20194;-77
2022/03/29 11:30:36;;;;;;;45.20;29.10;;;16.60;99.90;;;;;;5100329;28;20225;-78
2022/03/29 11:33:06;;;;;;;40.90;26.80;;;16.20;99.90;;;;;;5100633;28;20201;-86
2022/03/29 11:35:35;;;;;;;44.67;27.77;;;15.90;99.90;;;;;;5099348;28;20200;-81
2022/03/29 11:38:10;;;;;;;42.53;26.50;;;15.90;99.90;;;;;;5101068;28;20205;-79
2022/03/29 11:40:40;;;;;;;39.37;27.77;;;16.20;99.90;;;;;;5100047;28;20225;-82
2022/03/29 11:43:12;;;;;;;39.33;25.83;;;16.20;99.90;;;;;;5097533;28;20189;-80
2022/03/29 11:45:41;;;;;;;42.65;30.58;;;16.20;99.90;;;;;;5095805;28;20959;-79
2022/03/29 11:48:12;;;;;;;42.93;30.40;;;16.80;99.90;;;;;;5101924;28;20587;-79
2022/03/29 11:50:44;;;;;;;41.60;29.53;;;16.70;99.90;;;;;;5095318;28;20583;-81
2022/03/29 11:53:19;;;;;;;42.90;29.93;;;16.50;99.90;;;;;;5094687;28;20217;-82
2022/03/29 11:55:57;;;;;;;35.57;26.63;;;16.80;99.90;;;;;;5095278;28;20212;-79
2022/03/29 11:58:31;;;;;;;40.93;27.37;;;17.30;99.90;;;;;;5097730;28;20293;-86
2022/03/29 12:01:02;;;;;;;40.03;25.33;;;17.30;99.90;;;;;;5098240;28;20687;-85
2022/03/29 12:03:31;;;;;;;33.33;23.87;;;16.90;99.90;;;;;;5103120;28;20692;-78
2022/03/29 12:06:13;;;;;;;32.07;24.67;;;16.50;99.90;;;;;;5114824;28;20703;-87
2022/03/29 12:08:49;;;;;;;40.75;29.80;;;16.30;99.90;;;;;;5118810;28;20469;-84
2022/03/29 12:11:17;;;;;;;37.07;26.37;;;16.60;99.90;;;;;;5118239;28;20191;-82
2022/03/29 12:13:46;;;;;;;35.63;24.93;;;17.10;99.90;;;;;;5118712;28;20198;-82
2022/03/29 12:16:22;;;;;;;36.23;24.97;;;16.80;99.90;;;;;;5124455;28;20189;-78
2022/03/29 12:18:49;;;;;;;36.03;25.27;;;16.80;99.90;;;;;;5113932;28;20197;-83
2022/03/29 12:21:25;;;;;;;35.33;24.67;;;16.80;99.90;;;;;;5095662;28;20220;-81
2022/03/29 12:24:00;;;;;;;35.50;24.33;;;17.00;99.90;;;;;;5097087;28;20196;-81
2022/03/29 12:26:34;;;;;;;37.63;23.63;;;16.80;99.90;;;;;;5099413;28;20197;-79
2022/03/29 12:29:02;;;;;;;33.77;23.60;;;16.80;99.90;;;;;;5100213;28;20221;-82
2022/03/29 12:31:30;;;;;;;34.03;23.00;;;16.90;99.90;;;;;;5102535;28;20185;-80
2022/03/29 12:34:05;;;;;;;35.67;24.17;;;17.00;99.90;;;;;;5099504;28;20698;-87
2022/03/29 12:36:33;;;;;;;30.37;22.90;;;16.70;99.90;;;;;;5109607;28;20222;-83
2022/03/29 12:39:03;;;;;;;32.50;21.60;;;16.60;99.90;;;;;;5105216;28;20211;-80
2022/03/29 12:41:38;;;;;;;30.73;22.30;;;17.00;99.90;;;;;;5118748;28;20235;-85
2022/03/29 12:44:07;;;;;;;29.67;22.30;;;17.00;99.90;;;;;;5119859;28;20618;-87
2022/03/29 12:46:35;;;;;;;31.47;22.57;;;17.40;99.90;;;;;;5099136;28;20561;-80
2022/03/29 12:49:02;;;;;;;30.30;21.43;;;17.20;99.90;;;;;;5097514;28;20262;-80
2022/03/29 12:51:31;;;;;;;35.27;22.90;;;17.20;99.90;;;;;;5104169;28;20196;-80
2022/03/29 12:54:08;;;;;;;29.20;21.07;;;17.10;99.90;;;;;;5116493;28;20205;-80
2022/03/29 12:56:37;;;;;;;29.37;20.47;;;16.80;99.90;;;;;;5116609;28;20283;-87
2022/03/29 12:59:27;;;;;;;31.17;20.40;;;16.50;99.90;;;;;;5095811;28;20201;-79
2022/03/29 13:01:59;;;;;;;29.50;20.10;;;16.30;99.90;;;;;;5102355;28;20203;-79
2022/03/29 13:04:36;;;;;;;34.43;21.37;;;16.70;99.90;;;;;;5116743;28;20209;-78
2022/03/29 13:07:03;;;;;;;31.83;21.67;;;16.70;99.90;;;;;;5115569;28;20558;-79
2022/03/29 13:09:32;;;;;;;28.20;20.63;;;16.70;99.90;;;;;;5109551;28;20196;-79
2022/03/29 13:12:12;;;;;;;32.70;22.20;;;16.90;99.90;;;;;;5098096;28;20205;-79
2022/03/29 13:14:42;;;;;;;29.10;21.93;;;17.10;99.90;;;;;;5094943;28;20659;-79
2022/03/29 13:17:09;;;;;;;36.93;26.10;;;16.90;99.90;;;;;;5095671;28;20197;-79
2022/03/29 13:19:36;;;;;;;36.50;26.97;;;16.70;99.90;;;;;;5106830;28;20208;-80
2022/03/29 13:22:05;;;;;;;42.27;26.60;;;16.20;99.90;;;;;;5115587;28;20541;-78
2022/03/29 13:24:39;;;;;;;35.67;28.30;;;16.50;99.90;;;;;;5115316;28;20269;-78
2022/03/29 13:27:07;;;;;;;38.47;29.40;;;16.70;99.90;;;;;;5114208;28;20204;-76
2022/03/29 13:29:34;;;;;;;40.60;29.30;;;16.50;99.90;;;;;;5115360;28;20329;-77
2022/03/29 13:32:02;;;;;;;41.43;28.97;;;16.30;99.90;;;;;;5115325;28;20203;-77
2022/03/29 13:34:29;;;;;;;38.80;27.50;;;16.40;99.90;;;;;;5115554;28;20199;-79
2022/03/29 13:36:57;;;;;;;34.50;27.43;;;16.20;99.90;;;;;;5115471;28;20230;-77
2022/03/29 13:39:24;;;;;;;37.63;26.13;;;16.30;99.90;;;;;;5115469;28;20212;-78
2022/03/29 13:41:54;;;;;;;38.67;27.67;;;16.20;99.90;;;;;;5115297;28;20242;-77
2022/03/29 13:44:21;;;;;;;36.73;26.47;;;16.30;99.90;;;;;;5114958;28;20555;-79
2022/03/29 13:46:48;;;;;;;35.87;27.87;;;16.40;99.90;;;;;;5115429;28;20226;-78
2022/03/29 13:49:14;;;;;;;35.83;28.83;;;16.80;99.90;;;;;;5114931;28;20208;-77
2022/03/29 13:51:41;;;;;;;36.83;28.83;;;16.60;99.90;;;;;;5115138;28;20219;-76
2022/03/29 13:54:08;;;;;;;35.40;29.13;;;16.50;99.90;;;;;;5115048;28;20202;-77
2022/03/29 13:56:35;;;;;;;40.00;30.00;;;16.60;99.90;;;;;;5115071;28;20207;-75
2022/03/29 13:59:04;;;;;;;44.07;30.73;;;16.60;99.90;;;;;;5115029;28;20211;-76
2022/03/29 14:01:31;;;;;;;40.87;30.80;;;16.30;99.90;;;;;;5114941;28;20252;-79
2022/03/29 14:03:58;;;;;;;37.13;29.23;;;16.00;99.90;;;;;;5114477;28;20209;-76
2022/03/29 14:06:25;;;;;;;35.07;30.17;;;16.10;99.90;;;;;;5094501;28;20209;-78
2022/03/29 14:08:54;;;;;;;41.42;35.50;;;16.20;99.90;;;;;;5093208;28;20885;-77
2022/03/29 14:11:21;;;;;;;39.97;30.33;;;16.60;99.90;;;;;;5094365;28;20205;-77
2022/03/29 14:13:47;;;;;;;36.67;30.30;;;16.70;99.90;;;;;;5094096;28;20201;-78
2022/03/29 14:16:16;;;;;;;36.63;29.40;;;16.50;99.90;;;;;;5094304;28;20201;-77
2022/03/29 14:18:42;;;;;;;41.80;31.50;;;16.30;99.90;;;;;;5094274;28;20205;-79
2022/03/29 14:21:09;;;;;;;42.70;30.80;;;16.40;99.90;;;;;;5094158;28;20237;-79
2022/03/29 14:23:36;;;;;;;41.33;31.37;;;16.30;99.90;;;;;;5093988;28;20202;-78
2022/03/29 14:26:03;;;;;;;37.57;30.03;;;16.20;99.90;;;;;;5093624;28;20213;-77
2022/03/29 14:28:30;;;;;;;36.30;30.33;;;16.10;99.90;;;;;;5093637;28;20208;-80
2022/03/29 14:31:00;;;;;;;40.08;35.00;;;16.20;99.90;;;;;;5093432;28;20434;-79
2022/03/29 14:33:30;;;;;;;43.03;32.33;;;16.40;99.90;;;;;;5093881;28;20209;-79